Portada
METAR-TAF:

METAR-TAF

Aeropuertos :

Washington, Indiana, Estados Unidos

latitud: 38-42-02N, longitud: 087-07-47W, altitud: 144 m

Observación

El informe se hizo hace 43 minutos, a las 19:15 UTC
Viento 5 kt del sur-suroeste
Temperatura 32°C
Humedad 43%
Presión 1024 hPa
Visibilidad: 16.1 km
Nubes dispersas a una altura de 5000 ft

METAR: KDCY 191915Z AUTO 20005KT 10SM SCT050 32/18 A3023 RMK AO2 T03240177

Hora: 15:58 (19:58 UTC)


TAF: falta

Observaciones y pronósticos meteorológicos de más de 4000 aeropuertos (mensajes METAR y TAF).

Los puntos amarillos y rojos representan las estaciones disponibles.

Ponga el ratón en el punto deseado para ver el nombre de la estación.

Haga clic para ver las observaciones y los pronósticos meteorológicos.

Para cambiar el mapa : haga clic en los botones verdes con una cruz de color negro para hacer un zoom, en el botón verde con un guión para alejar o en las flechas verdes para mapas adyacentes.


METAR-TAF: